createdAt,value
2022-08-19T00:01:28.642Z,13.53
2022-08-19T00:03:58.638Z,13.53
2022-08-19T00:06:26.150Z,13.48
2022-08-19T00:08:53.626Z,13.53
2022-08-19T00:11:26.052Z,13.44
2022-08-19T00:13:53.840Z,13.37
2022-08-19T00:16:26.166Z,13.32
2022-08-19T00:18:56.035Z,13.25
2022-08-19T00:21:23.817Z,13.24
2022-08-19T00:23:51.445Z,13.13
2022-08-19T00:26:18.959Z,13.17
2022-08-19T00:28:48.108Z,13.23
2022-08-19T00:31:17.205Z,13.21
2022-08-19T00:33:45.046Z,13.16
2022-08-19T00:36:12.881Z,13.13
2022-08-19T00:38:42.169Z,13.09
2022-08-19T00:41:10.188Z,13.11
2022-08-19T00:43:38.473Z,13.08
2022-08-19T00:46:07.391Z,13.21
2022-08-19T00:48:37.352Z,13.03
2022-08-19T00:51:07.462Z,13.01
2022-08-19T00:53:35.894Z,12.99
2022-08-19T00:56:07.014Z,12.95
2022-08-19T00:58:36.082Z,12.99
2022-08-19T01:01:05.434Z,13.00
2022-08-19T01:03:56.604Z,12.90
2022-08-19T01:06:21.958Z,12.79
2022-08-19T01:08:50.198Z,12.65
2022-08-19T01:11:18.031Z,12.57
2022-08-19T01:13:49.877Z,12.42
2022-08-19T01:16:19.605Z,12.29
2022-08-19T01:18:49.309Z,12.27
2022-08-19T01:21:24.421Z,12.27
2022-08-19T01:23:53.582Z,12.23
2022-08-19T01:26:23.931Z,12.24
2022-08-19T01:28:57.328Z,12.31
2022-08-19T01:31:31.352Z,12.41
2022-08-19T01:34:00.872Z,12.49
2022-08-19T01:36:30.528Z,12.40
2022-08-19T01:39:00.332Z,12.38
2022-08-19T01:41:27.893Z,12.33
2022-08-19T01:44:13.519Z,12.41
2022-08-19T01:46:44.862Z,12.43
2022-08-19T01:49:12.531Z,12.31
2022-08-19T01:51:40.677Z,12.33
2022-08-19T01:54:09.972Z,12.31
2022-08-19T01:56:37.773Z,12.27
2022-08-19T01:59:10.235Z,12.32
2022-08-19T02:01:37.838Z,12.41
2022-08-19T02:04:05.961Z,12.27
2022-08-19T02:06:33.932Z,12.25
2022-08-19T02:09:02.166Z,12.20
2022-08-19T02:11:34.324Z,12.19
2022-08-19T02:14:03.601Z,12.08
2022-08-19T02:16:31.812Z,12.05
2022-08-19T02:19:01.358Z,12.06
2022-08-19T02:21:29.884Z,12.15
2022-08-19T02:23:57.828Z,12.17
2022-08-19T02:26:27.317Z,12.21
2022-08-19T02:28:57.151Z,12.22
2022-08-19T02:31:26.866Z,12.24
2022-08-19T02:33:56.745Z,12.24
2022-08-19T02:36:26.235Z,12.35
2022-08-19T02:38:55.537Z,12.37
2022-08-19T02:41:26.599Z,12.25
2022-08-19T02:44:22.906Z,12.07
2022-08-19T02:46:44.308Z,11.93
2022-08-19T02:49:11.750Z,11.93
2022-08-19T02:51:46.140Z,11.94
2022-08-19T02:54:14.806Z,11.95
2022-08-19T02:56:44.101Z,11.99
2022-08-19T02:59:13.422Z,12.13
2022-08-19T03:01:43.168Z,12.11
2022-08-19T03:04:14.142Z,11.98
2022-08-19T03:06:43.732Z,11.74
2022-08-19T03:09:12.375Z,11.68
2022-08-19T03:11:40.640Z,11.70
2022-08-19T03:14:10.190Z,11.69
2022-08-19T03:16:43.714Z,11.53
2022-08-19T03:19:11.255Z,11.46
2022-08-19T03:21:38.745Z,11.51
2022-08-19T03:24:08.460Z,11.47
2022-08-19T03:26:36.219Z,11.54
2022-08-19T03:29:05.697Z,11.47
2022-08-19T03:31:43.456Z,11.51
2022-08-19T03:34:16.594Z,11.53
2022-08-19T03:36:44.168Z,11.60
2022-08-19T03:39:12.399Z,11.64
2022-08-19T03:41:44.991Z,11.58
2022-08-19T03:44:16.989Z,11.50
2022-08-19T03:46:47.921Z,11.44
2022-08-19T03:49:18.744Z,11.38
2022-08-19T03:51:48.823Z,11.34
2022-08-19T03:54:18.950Z,11.34
2022-08-19T03:56:48.443Z,11.32
2022-08-19T03:59:18.718Z,11.53
2022-08-19T04:01:46.608Z,11.51
2022-08-19T04:04:14.144Z,11.34
2022-08-19T04:06:44.856Z,11.25
2022-08-19T04:09:13.584Z,11.24
2022-08-19T04:11:44.963Z,11.31
2022-08-19T04:14:14.913Z,11.39
2022-08-19T04:16:43.551Z,11.47
2022-08-19T04:19:11.184Z,11.51
2022-08-19T04:21:38.781Z,11.52
2022-08-19T04:24:08.718Z,11.61
2022-08-19T04:26:38.591Z,11.34
2022-08-19T04:29:12.342Z,11.52
2022-08-19T04:31:42.048Z,11.37
2022-08-19T04:34:12.046Z,11.48
2022-08-19T04:36:43.238Z,11.54
2022-08-19T04:39:14.429Z,11.78
2022-08-19T04:41:59.734Z,11.85
2022-08-19T04:44:31.464Z,11.93
2022-08-19T04:47:01.366Z,11.85
2022-08-19T04:49:29.340Z,11.95
2022-08-19T04:51:56.891Z,11.95
2022-08-19T04:54:37.600Z,11.82
2022-08-19T04:57:08.406Z,11.68
2022-08-19T04:59:36.819Z,11.54
2022-08-19T05:02:05.363Z,11.53
2022-08-19T05:04:33.698Z,11.56
2022-08-19T05:07:02.490Z,11.73
2022-08-19T05:09:39.085Z,12.29
2022-08-19T05:12:20.252Z,12.57
2022-08-19T05:14:48.100Z,12.78
2022-08-19T05:17:37.529Z,13.01
2022-08-19T05:20:22.636Z,12.97
2022-08-19T05:22:50.199Z,13.20
2022-08-19T05:25:21.435Z,13.30
2022-08-19T05:27:49.847Z,13.28
2022-08-19T05:30:18.926Z,13.21
2022-08-19T05:33:01.299Z,13.35
2022-08-19T05:35:29.084Z,13.36
2022-08-19T05:38:02.507Z,13.42
2022-08-19T05:40:31.398Z,13.36
2022-08-19T05:42:59.469Z,13.34
2022-08-19T05:45:26.914Z,13.43
2022-08-19T05:47:54.794Z,13.50
2022-08-19T05:50:22.331Z,13.63
2022-08-19T05:52:50.190Z,13.97
2022-08-19T05:55:21.093Z,14.32
2022-08-19T05:57:49.984Z,14.57
2022-08-19T06:00:21.493Z,14.71
2022-08-19T06:02:52.495Z,14.86
2022-08-19T06:05:20.993Z,15.03
2022-08-19T06:07:48.515Z,15.09
2022-08-19T06:10:16.329Z,15.13
2022-08-19T06:12:43.800Z,15.15
2022-08-19T06:15:14.931Z,15.25
2022-08-19T06:17:45.134Z,15.27
2022-08-19T06:20:16.131Z,15.28
2022-08-19T06:22:45.668Z,15.33
2022-08-19T06:25:14.707Z,15.49
2022-08-19T06:28:11.455Z,15.64
2022-08-19T06:30:31.517Z,15.67
2022-08-19T06:32:59.637Z,15.82
2022-08-19T06:35:27.225Z,16.00
2022-08-19T06:37:54.945Z,16.16
2022-08-19T06:40:22.955Z,16.37
2022-08-19T06:42:54.786Z,16.41
2022-08-19T06:45:24.633Z,16.75
2022-08-19T06:47:59.287Z,17.01
2022-08-19T06:50:27.283Z,17.21
2022-08-19T06:52:56.350Z,17.33
2022-08-19T06:55:24.381Z,17.59
2022-08-19T06:57:54.540Z,17.81
2022-08-19T07:00:23.077Z,17.82
2022-08-19T07:02:59.406Z,17.94
2022-08-19T07:05:30.425Z,17.83
2022-08-19T07:08:02.861Z,17.84
2022-08-19T07:10:33.653Z,17.95
2022-08-19T07:13:01.225Z,18.15
2022-08-19T07:15:28.874Z,18.07
2022-08-19T07:17:56.695Z,18.30
2022-08-19T07:20:28.492Z,18.43
2022-08-19T07:22:58.298Z,18.74
2022-08-19T07:25:32.339Z,18.77
2022-08-19T07:28:01.548Z,18.92
2022-08-19T07:30:29.451Z,18.71
2022-08-19T07:32:59.282Z,19.15
2022-08-19T07:35:26.824Z,19.28
2022-08-19T07:37:54.508Z,19.43
2022-08-19T07:40:23.641Z,19.28
2022-08-19T07:42:51.111Z,19.32
2022-08-19T07:45:18.673Z,19.62
2022-08-19T07:47:48.810Z,19.81
2022-08-19T07:50:21.254Z,19.81
2022-08-19T07:52:50.317Z,19.88
2022-08-19T07:55:42.204Z,19.93
2022-08-19T07:58:09.777Z,20.02
2022-08-19T08:00:37.792Z,20.39
2022-08-19T08:03:05.391Z,20.40
2022-08-19T08:05:50.551Z,20.36
2022-08-19T08:08:43.859Z,20.36
2022-08-19T08:11:12.577Z,20.51
2022-08-19T08:13:45.052Z,20.30
2022-08-19T08:16:13.979Z,20.38
2022-08-19T08:18:43.142Z,20.40
2022-08-19T08:21:10.802Z,20.53
2022-08-19T08:23:39.813Z,20.82
2022-08-19T08:26:07.346Z,20.70
2022-08-19T08:28:34.933Z,20.07
2022-08-19T08:31:03.917Z,20.42
2022-08-19T08:33:37.270Z,20.12
2022-08-19T08:36:06.551Z,20.20
2022-08-19T08:38:39.649Z,20.15
2022-08-19T08:41:15.111Z,20.54
2022-08-19T08:43:44.351Z,20.58
2022-08-19T08:46:30.651Z,20.64
2022-08-19T08:49:08.347Z,20.73
2022-08-19T08:54:15.879Z,21.06
2022-08-19T08:56:45.356Z,21.09
2022-08-19T08:59:21.989Z,21.25
2022-08-19T09:01:50.990Z,21.50
2022-08-19T09:04:18.724Z,21.91
2022-08-19T09:06:53.686Z,22.12
2022-08-19T09:09:31.922Z,21.84
2022-08-19T09:12:11.831Z,21.79
2022-08-19T09:14:50.826Z,22.19
2022-08-19T09:17:32.005Z,21.89
2022-08-19T09:20:05.771Z,21.89
2022-08-19T09:22:37.474Z,21.49
2022-08-19T09:25:06.726Z,21.21
2022-08-19T09:27:42.919Z,21.13
2022-08-19T09:30:15.994Z,21.31
2022-08-19T09:32:46.160Z,21.60
2022-08-19T09:35:15.460Z,21.20
2022-08-19T09:37:43.650Z,21.65
2022-08-19T09:40:13.118Z,21.63
2022-08-19T09:42:50.257Z,21.73
2022-08-19T09:45:23.292Z,21.10
2022-08-19T09:47:54.259Z,21.34
2022-08-19T09:50:24.010Z,21.20
2022-08-19T09:52:55.311Z,21.34
2022-08-19T09:55:31.827Z,21.57
2022-08-19T09:58:03.932Z,21.34
2022-08-19T10:00:32.475Z,21.70
2022-08-19T10:03:01.462Z,21.24
2022-08-19T10:05:48.882Z,21.48
2022-08-19T10:08:18.258Z,21.35
2022-08-19T10:10:47.273Z,21.33
2022-08-19T10:13:16.063Z,21.51
2022-08-19T10:15:45.125Z,21.39
2022-08-19T10:18:18.645Z,21.35
2022-08-19T10:20:51.756Z,21.31
2022-08-19T10:23:21.985Z,21.61
2022-08-19T10:25:50.464Z,21.86
2022-08-19T10:28:19.249Z,22.35
2022-08-19T10:30:47.839Z,22.31
2022-08-19T10:33:38.717Z,22.48
2022-08-19T10:36:07.185Z,22.16
2022-08-19T10:38:35.604Z,22.23
2022-08-19T10:41:11.194Z,22.24
2022-08-19T10:43:40.536Z,22.32
2022-08-19T10:46:13.757Z,22.34
2022-08-19T10:48:46.169Z,22.62
2022-08-19T10:51:32.231Z,22.49
2022-08-19T10:54:00.639Z,22.82
2022-08-19T10:56:46.196Z,22.71
2022-08-19T10:59:15.019Z,22.49
2022-08-19T11:01:43.986Z,22.37
2022-08-19T11:04:14.449Z,22.56
2022-08-19T11:06:44.274Z,22.84
2022-08-19T11:09:12.749Z,23.01
2022-08-19T11:11:41.751Z,23.17
2022-08-19T11:14:10.682Z,23.32
2022-08-19T11:16:39.900Z,23.43
2022-08-19T11:19:09.177Z,23.43
2022-08-19T11:21:40.844Z,23.38
2022-08-19T11:24:11.106Z,23.29
2022-08-19T11:26:39.736Z,23.23
2022-08-19T11:29:12.436Z,23.39
2022-08-19T11:31:42.084Z,23.33
2022-08-19T11:34:12.301Z,23.37
2022-08-19T11:36:43.626Z,23.60
2022-08-19T11:39:13.991Z,23.51
2022-08-19T11:41:42.008Z,23.54
2022-08-19T11:44:09.700Z,23.50
2022-08-19T11:46:38.411Z,23.57
2022-08-19T11:49:13.794Z,23.42
2022-08-19T11:51:44.037Z,23.48
2022-08-19T11:54:13.608Z,23.64
2022-08-19T11:56:41.800Z,23.25
2022-08-19T11:59:14.071Z,23.43
2022-08-19T12:01:43.432Z,23.26
2022-08-19T12:04:11.303Z,23.27
2022-08-19T12:06:40.958Z,23.23
2022-08-19T12:09:11.384Z,22.74
2022-08-19T12:11:39.857Z,22.87
2022-08-19T12:14:07.878Z,23.07
2022-08-19T12:16:37.806Z,23.34
2022-08-19T12:19:08.742Z,23.57
2022-08-19T12:21:37.882Z,23.70
2022-08-19T12:24:08.339Z,23.58
2022-08-19T12:26:52.511Z,23.61
2022-08-19T12:29:23.685Z,23.39
2022-08-19T12:31:52.064Z,23.50
2022-08-19T12:34:20.880Z,23.81
2022-08-19T12:36:50.039Z,23.89
2022-08-19T12:39:17.530Z,23.87
2022-08-19T12:41:54.124Z,23.63
2022-08-19T12:44:29.542Z,23.88
2022-08-19T12:46:59.992Z,24.11
2022-08-19T12:49:53.791Z,24.38
2022-08-19T12:52:19.851Z,24.16
2022-08-19T12:54:53.965Z,24.25
2022-08-19T12:57:24.512Z,24.17
2022-08-19T13:00:00.081Z,24.18
2022-08-19T13:02:27.978Z,24.26
2022-08-19T13:04:55.460Z,24.27
2022-08-19T13:07:22.924Z,24.22
2022-08-19T13:09:53.200Z,24.45
2022-08-19T13:12:21.978Z,24.52
2022-08-19T13:14:54.059Z,24.71
2022-08-19T13:17:22.512Z,24.61
2022-08-19T13:19:51.106Z,24.25
2022-08-19T13:22:19.282Z,23.98
2022-08-19T13:24:47.520Z,24.02
2022-08-19T13:27:15.291Z,24.27
2022-08-19T13:30:01.079Z,24.13
2022-08-19T13:32:48.130Z,24.12
2022-08-19T13:35:19.532Z,24.22
2022-08-19T13:37:47.266Z,24.33
2022-08-19T13:40:19.839Z,24.63
2022-08-19T13:42:50.689Z,25.00
2022-08-19T13:45:20.872Z,24.68
2022-08-19T13:47:53.596Z,24.93
2022-08-19T13:50:25.764Z,25.03
2022-08-19T13:52:53.890Z,25.32
2022-08-19T13:55:24.555Z,24.85
2022-08-19T13:57:53.851Z,24.49
2022-08-19T14:00:22.878Z,24.60
2022-08-19T14:02:54.778Z,24.69
2022-08-19T14:05:22.904Z,24.97
2022-08-19T14:07:50.403Z,24.75
2022-08-19T14:10:19.685Z,24.79
2022-08-19T14:12:48.154Z,24.44
2022-08-19T14:15:16.214Z,24.54
2022-08-19T14:17:45.638Z,24.95
2022-08-19T14:20:17.616Z,25.17
2022-08-19T14:22:47.740Z,25.43
2022-08-19T14:25:18.911Z,25.70
2022-08-19T14:27:46.831Z,25.19
2022-08-19T14:30:16.731Z,24.92
2022-08-19T14:32:45.380Z,24.80
2022-08-19T14:35:16.357Z,25.22
2022-08-19T14:37:46.178Z,25.20
2022-08-19T14:40:15.133Z,24.75
2022-08-19T14:42:43.062Z,24.72
2022-08-19T14:45:11.873Z,24.13
2022-08-19T14:47:40.891Z,23.50
2022-08-19T14:50:10.443Z,23.47
2022-08-19T14:52:40.959Z,23.26
2022-08-19T14:55:09.280Z,23.44
2022-08-19T14:57:36.973Z,23.36
2022-08-19T15:00:05.662Z,23.37
2022-08-19T15:02:34.640Z,23.81
2022-08-19T15:05:03.116Z,23.59
2022-08-19T15:07:30.896Z,23.42
2022-08-19T15:10:00.196Z,23.37
2022-08-19T15:12:27.769Z,23.72
2022-08-19T15:14:56.340Z,24.17
2022-08-19T15:17:43.294Z,23.87
2022-08-19T15:20:14.452Z,24.27
2022-08-19T15:22:42.587Z,23.94
2022-08-19T15:25:15.706Z,23.89
2022-08-19T15:27:44.279Z,23.78
2022-08-19T15:30:13.780Z,24.33
2022-08-19T15:32:41.478Z,24.31
2022-08-19T15:35:09.571Z,24.05
2022-08-19T15:37:37.691Z,23.46
2022-08-19T15:40:07.349Z,22.84
2022-08-19T15:42:37.299Z,22.75
2022-08-19T15:45:05.342Z,22.60
2022-08-19T15:47:34.542Z,22.60
2022-08-19T15:50:10.512Z,22.30
2022-08-19T15:52:46.789Z,22.20
2022-08-19T15:55:19.966Z,22.07
2022-08-19T15:58:29.029Z,22.04
2022-08-19T16:01:15.346Z,21.96
2022-08-19T16:04:01.392Z,21.93
2022-08-19T16:06:31.310Z,21.87
2022-08-19T16:09:01.765Z,21.71
2022-08-19T16:11:32.136Z,21.76
2022-08-19T16:14:02.676Z,21.71
2022-08-19T16:16:34.107Z,21.62
2022-08-19T16:19:03.837Z,21.60
2022-08-19T16:21:33.087Z,21.71
2022-08-19T16:24:02.737Z,21.69
2022-08-19T16:26:31.062Z,21.51
2022-08-19T16:29:01.367Z,21.48
2022-08-19T16:31:29.458Z,21.63
2022-08-19T16:33:57.339Z,21.53
2022-08-19T16:36:25.019Z,21.32
2022-08-19T16:38:53.315Z,21.14
2022-08-19T16:41:21.426Z,21.14
2022-08-19T16:43:52.477Z,21.01
2022-08-19T16:46:22.633Z,21.00
2022-08-19T16:48:50.879Z,21.00
2022-08-19T16:51:18.645Z,20.96
2022-08-19T16:53:46.206Z,21.00
2022-08-19T16:56:13.988Z,21.08
2022-08-19T16:58:42.568Z,20.90
2022-08-19T17:01:11.128Z,20.85
2022-08-19T17:03:40.296Z,20.94
2022-08-19T17:06:15.854Z,20.86
2022-08-19T17:08:48.692Z,20.87
2022-08-19T17:11:18.685Z,20.93
2022-08-19T17:13:47.664Z,20.95
2022-08-19T17:16:16.082Z,20.87
2022-08-19T17:18:44.969Z,20.84
2022-08-19T17:21:13.233Z,20.91
2022-08-19T17:23:43.471Z,20.84
2022-08-19T17:26:11.535Z,20.79
2022-08-19T17:28:45.324Z,20.86
2022-08-19T17:31:13.156Z,20.84
2022-08-19T17:33:41.099Z,20.79
2022-08-19T17:36:10.428Z,20.78
2022-08-19T17:38:39.224Z,20.79
2022-08-19T17:41:07.455Z,20.68
2022-08-19T17:43:41.298Z,20.78
2022-08-19T17:46:18.279Z,20.77
2022-08-19T17:48:51.927Z,20.81
2022-08-19T17:51:24.503Z,20.61
2022-08-19T17:53:54.532Z,20.76
2022-08-19T17:56:23.419Z,20.77
2022-08-19T17:58:54.389Z,20.79
2022-08-19T18:01:29.503Z,20.63
2022-08-19T18:04:16.882Z,20.73
2022-08-19T18:06:50.250Z,20.76
2022-08-19T18:09:20.969Z,20.55
2022-08-19T18:11:53.034Z,20.67
2022-08-19T18:14:20.972Z,20.71
2022-08-19T18:16:48.483Z,20.67
2022-08-19T18:19:16.004Z,20.63
2022-08-19T18:21:44.882Z,20.58
2022-08-19T18:24:12.551Z,20.44
2022-08-19T18:26:40.285Z,20.46
2022-08-19T18:29:09.218Z,20.36
2022-08-19T18:31:38.581Z,20.38
2022-08-19T18:34:09.926Z,20.27
2022-08-19T18:36:53.535Z,20.21
2022-08-19T18:39:44.241Z,19.93
2022-08-19T18:42:32.735Z,19.99
2022-08-19T18:45:18.147Z,19.99
2022-08-19T18:48:03.420Z,19.95
2022-08-19T18:50:31.087Z,19.92
2022-08-19T18:52:58.616Z,19.86
2022-08-19T18:55:29.168Z,19.76
2022-08-19T18:57:56.929Z,19.71
2022-08-19T19:00:25.211Z,19.62
2022-08-19T19:02:54.474Z,19.58
2022-08-19T19:05:22.873Z,19.53
2022-08-19T19:07:50.475Z,19.51
2022-08-19T19:10:18.094Z,19.50
2022-08-19T19:12:47.668Z,19.49
2022-08-19T19:15:15.174Z,19.45
2022-08-19T19:17:42.705Z,19.40
2022-08-19T19:20:10.283Z,19.39
2022-08-19T19:22:37.814Z,19.44
2022-08-19T19:25:06.545Z,19.36
2022-08-19T19:27:34.030Z,19.38
2022-08-19T19:30:02.898Z,19.36
2022-08-19T19:32:38.967Z,19.10
2022-08-19T19:35:09.740Z,19.19
2022-08-19T19:37:37.355Z,19.16
2022-08-19T19:40:05.482Z,19.18
2022-08-19T19:42:33.031Z,19.09
2022-08-19T19:45:01.962Z,19.00
2022-08-19T19:47:31.122Z,18.92
2022-08-19T19:50:15.588Z,18.74
2022-08-19T19:52:46.554Z,18.47
2022-08-19T19:55:17.942Z,18.25
2022-08-19T19:57:46.201Z,18.05
2022-08-19T20:00:16.304Z,17.96
2022-08-19T20:02:49.274Z,17.91
2022-08-19T20:05:19.144Z,17.84
2022-08-19T20:08:04.401Z,17.74
2022-08-19T20:10:32.444Z,17.73
2022-08-19T20:13:02.221Z,17.71
2022-08-19T20:15:30.881Z,17.67
2022-08-19T20:18:00.825Z,17.71
2022-08-19T20:20:28.363Z,17.64
2022-08-19T20:22:55.936Z,17.62
2022-08-19T20:25:23.454Z,17.50
2022-08-19T20:27:51.159Z,17.50
2022-08-19T20:30:21.639Z,17.45
2022-08-19T20:32:51.353Z,17.42
2022-08-19T20:35:22.120Z,17.35
2022-08-19T20:37:52.853Z,17.28
2022-08-19T20:40:23.543Z,17.25
2022-08-19T20:42:51.398Z,17.16
2022-08-19T20:45:32.895Z,17.13
2022-08-19T20:48:02.215Z,17.09
2022-08-19T20:50:31.425Z,17.02
2022-08-19T20:52:59.359Z,17.02
2022-08-19T20:55:28.245Z,16.94
2022-08-19T20:57:56.445Z,16.95
2022-08-19T21:00:24.116Z,16.99
2022-08-19T21:02:51.564Z,16.97
2022-08-19T21:05:19.032Z,16.97
2022-08-19T21:07:47.843Z,16.95
2022-08-19T21:10:15.329Z,16.93
2022-08-19T21:12:44.273Z,16.88
2022-08-19T21:15:12.394Z,16.89
2022-08-19T21:17:39.943Z,16.90
2022-08-19T21:20:09.539Z,16.89
2022-08-19T21:22:37.091Z,16.89
2022-08-19T21:25:07.095Z,16.91
2022-08-19T21:27:34.659Z,16.93
2022-08-19T21:30:02.142Z,16.89
2022-08-19T21:32:29.623Z,16.89
2022-08-19T21:34:57.303Z,16.91
2022-08-19T21:37:26.137Z,16.95
2022-08-19T21:39:54.174Z,16.91
2022-08-19T21:42:23.414Z,16.95
2022-08-19T21:44:50.988Z,16.92
2022-08-19T21:47:18.505Z,16.88
2022-08-19T21:49:46.016Z,16.83
2022-08-19T21:52:13.773Z,16.89
2022-08-19T21:54:41.649Z,16.88
2022-08-19T21:57:10.507Z,16.86
2022-08-19T21:59:43.519Z,16.86
2022-08-19T22:02:19.972Z,16.65
2022-08-19T22:04:49.061Z,16.84
2022-08-19T22:07:16.691Z,16.82
2022-08-19T22:09:45.410Z,16.84
2022-08-19T22:12:23.855Z,16.81
2022-08-19T22:14:53.760Z,16.78
2022-08-19T22:17:22.308Z,16.79
2022-08-19T22:19:50.822Z,16.77
2022-08-19T22:22:23.998Z,16.75
2022-08-19T22:24:51.772Z,16.73
2022-08-19T22:27:20.179Z,16.73
2022-08-19T22:29:48.051Z,16.73
2022-08-19T22:32:27.891Z,16.72
2022-08-19T22:34:59.226Z,16.69
2022-08-19T22:37:27.608Z,16.65
2022-08-19T22:39:55.521Z,16.71
2022-08-19T22:42:24.647Z,16.71
2022-08-19T22:44:53.144Z,16.76
2022-08-19T22:47:23.376Z,16.78
2022-08-19T22:49:54.612Z,16.69
2022-08-19T22:52:21.960Z,16.70
2022-08-19T22:54:51.339Z,16.70
2022-08-19T22:57:20.344Z,16.67
2022-08-19T22:59:49.451Z,16.66
2022-08-19T23:02:19.183Z,16.65
2022-08-19T23:04:48.779Z,16.59
2022-08-19T23:07:16.528Z,16.67
2022-08-19T23:09:44.518Z,16.60
2022-08-19T23:12:13.763Z,16.60
2022-08-19T23:14:41.477Z,16.65
2022-08-19T23:17:09.402Z,16.59
2022-08-19T23:19:38.342Z,16.58
2022-08-19T23:22:08.255Z,16.55
2022-08-19T23:24:35.721Z,16.53
2022-08-19T23:27:21.144Z,16.57
2022-08-19T23:30:08.179Z,16.59
2022-08-19T23:32:36.395Z,16.54
2022-08-19T23:35:04.530Z,16.56
2022-08-19T23:37:33.373Z,16.57
2022-08-19T23:40:01.236Z,16.62
2022-08-19T23:42:28.844Z,16.59
2022-08-19T23:45:01.225Z,16.57
2022-08-19T23:47:29.283Z,16.55
2022-08-19T23:49:57.923Z,16.55
2022-08-19T23:52:26.143Z,16.53
2022-08-19T23:54:55.179Z,16.51
2022-08-19T23:57:22.933Z,16.49
2022-08-19T23:59:50.418Z,16.44
